Kagoshima Airport
RJFK : rendu visible

Aérodrome :











RETROUVEZ-NOUS SUR...

 
LOGIN :

S'inscrire | Disclaimer

   EN    FR    IT 

 









Légende :    VFR   VFR Marginal   IFR   IFR Intensif   IFR Très Intensif
Visi : 
Plafond : 
>= 8 km
>= 3000ft
5 à 8 km
1000 à 3000 ft
1500m à 5 km
500 à 1000 ft
800 à 1500m
200 à 500 ft
< 800m
< 200 ft
Symboles :   Orages  Brouillard  Fortes neiges  Fortes précipitations  Vent > 20 kt






- Altitude de l'aérodrome : 906 ft
- Code IATA : KOJ


RJFK - Kagoshima

METARs EXPIRÉS :
  • 051200Z 14004KT 9999 FEW015 26/24 Q1017 RMK 2CU015 A3005
  • 051100Z 13004KT 9999 FEW015 SCT025 27/25 Q1017 RMK 1CU015 3CU025 A3004

TAF TAF RJFK
Valide du 05 à 12h jusqu'au 06 à 18h UTC


051109Z 0512/0618 12005KT 9999 FEW015 SCT030
BECMG 0514/0516 04003KT
BECMG 0522/0600 21011KT
BECMG 0606/0609 26008KT
FIR RJJJ / Asie



MET'MAP, la Météo Aéronautique d'un coup d'oeil ! - Copyright ORBIFLY Décembre 2007 - Disclaimer

ORBIFLY MET'MAP TEAM :

Programmation & Développement : Alexandra Zaïnal
Sur une idée originale de : Baudouin d'Aumeries
Assistance à la programmation : Marc-Olivier Méhu
Soutien technique & logistique : Manuel Goepfert

Contact : metmap@orbifly.com




SOURCES & CREDITS :

   NOAA       Earth
Advisory